sensor_id;sensor_type;location;lat;lon;timestamp;pressure;altitude;pressure_sealevel;temperature;humidity
35551;BME280;21655;46.056;13.616;2023-05-22T00:01:42;100179.13;;;17.13;100.00
35551;BME280;21655;46.056;13.616;2023-05-22T00:04:07;100180.38;;;17.17;100.00
35551;BME280;21655;46.056;13.616;2023-05-22T00:06:33;100177.13;;;17.20;100.00
35551;BME280;21655;46.056;13.616;2023-05-22T00:08:58;100183.47;;;17.09;100.00
35551;BME280;21655;46.056;13.616;2023-05-22T00:11:24;100187.00;;;16.98;100.00
35551;BME280;21655;46.056;13.616;2023-05-22T00:13:50;100188.63;;;17.12;100.00
35551;BME280;21655;46.056;13.616;2023-05-22T00:16:15;100185.19;;;17.10;100.00
35551;BME280;21655;46.056;13.616;2023-05-22T00:18:41;100176.19;;;17.02;100.00
35551;BME280;21655;46.056;13.616;2023-05-22T00:21:08;100181.56;;;16.72;100.00
35551;BME280;21655;46.056;13.616;2023-05-22T00:23:33;100172.44;;;16.83;100.00
35551;BME280;21655;46.056;13.616;2023-05-22T00:25:59;100182.06;;;16.94;100.00
35551;BME280;21655;46.056;13.616;2023-05-22T00:28:24;100178.53;;;17.04;100.00
35551;BME280;21655;46.056;13.616;2023-05-22T00:30:50;100164.25;;;17.12;100.00
35551;BME280;21655;46.056;13.616;2023-05-22T00:33:16;100166.41;;;17.10;100.00
35551;BME280;21655;46.056;13.616;2023-05-22T00:35:41;100155.91;;;17.06;100.00
35551;BME280;21655;46.056;13.616;2023-05-22T00:38:07;100160.72;;;17.23;100.00
35551;BME280;21655;46.056;13.616;2023-05-22T00:40:32;100153.50;;;17.09;100.00
35551;BME280;21655;46.056;13.616;2023-05-22T00:42:58;100150.69;;;17.09;100.00
35551;BME280;21655;46.056;13.616;2023-05-22T00:45:23;100156.63;;;16.95;100.00
35551;BME280;21655;46.056;13.616;2023-05-22T00:47:49;100150.06;;;17.07;100.00
35551;BME280;21655;46.056;13.616;2023-05-22T00:50:15;100155.84;;;17.12;100.00
35551;BME280;21655;46.056;13.616;2023-05-22T00:52:44;100163.97;;;17.20;100.00
35551;BME280;21655;46.056;13.616;2023-05-22T00:55:11;100156.38;;;17.27;100.00
35551;BME280;21655;46.056;13.616;2023-05-22T00:57:37;100152.47;;;17.28;100.00
35551;BME280;21655;46.056;13.616;2023-05-22T01:00:08;100161.91;;;16.79;100.00
35551;BME280;21655;46.056;13.616;2023-05-22T01:02:37;100164.38;;;16.62;100.00
35551;BME280;21655;46.056;13.616;2023-05-22T01:05:04;100165.47;;;16.61;100.00
35551;BME280;21655;46.056;13.616;2023-05-22T01:07:30;100165.09;;;16.51;100.00
35551;BME280;21655;46.056;13.616;2023-05-22T01:09:57;100158.03;;;16.42;100.00
35551;BME280;21655;46.056;13.616;2023-05-22T01:17:45;100157.06;;;16.61;100.00
35551;BME280;21655;46.056;13.616;2023-05-22T01:20:37;100162.13;;;16.40;100.00
35551;BME280;21655;46.056;13.616;2023-05-22T01:31:17;100173.97;;;16.42;100.00
35551;BME280;21655;46.056;13.616;2023-05-22T01:34:02;100163.88;;;16.28;100.00
35551;BME280;21655;46.056;13.616;2023-05-22T01:36:30;100170.19;;;16.10;100.00
35551;BME280;21655;46.056;13.616;2023-05-22T01:38:59;100173.38;;;16.20;100.00
35551;BME280;21655;46.056;13.616;2023-05-22T01:41:28;100165.22;;;16.19;100.00
35551;BME280;21655;46.056;13.616;2023-05-22T01:43:53;100164.81;;;16.02;100.00
35551;BME280;21655;46.056;13.616;2023-05-22T01:46:19;100173.22;;;15.96;100.00
35551;BME280;21655;46.056;13.616;2023-05-22T01:48:44;100169.97;;;16.05;100.00
35551;BME280;21655;46.056;13.616;2023-05-22T01:51:21;100171.13;;;15.91;100.00
35551;BME280;21655;46.056;13.616;2023-05-22T01:59:20;100165.75;;;15.77;100.00
35551;BME280;21655;46.056;13.616;2023-05-22T02:01:49;100166.19;;;15.80;100.00
35551;BME280;21655;46.056;13.616;2023-05-22T02:04:20;100173.97;;;15.65;100.00
35551;BME280;21655;46.056;13.616;2023-05-22T02:06:47;100173.13;;;15.58;100.00
35551;BME280;21655;46.056;13.616;2023-05-22T02:09:14;100173.09;;;15.65;100.00
35551;BME280;21655;46.056;13.616;2023-05-22T02:11:41;100185.16;;;15.46;100.00
35551;BME280;21655;46.056;13.616;2023-05-22T02:14:07;100176.13;;;15.44;100.00
35551;BME280;21655;46.056;13.616;2023-05-22T02:16:36;100185.59;;;15.36;100.00
35551;BME280;21655;46.056;13.616;2023-05-22T02:19:02;100173.56;;;15.36;100.00
35551;BME280;21655;46.056;13.616;2023-05-22T02:21:34;100167.75;;;15.37;100.00
35551;BME280;21655;46.056;13.616;2023-05-22T02:24:00;100170.13;;;15.40;100.00
35551;BME280;21655;46.056;13.616;2023-05-22T02:26:25;100170.13;;;15.40;100.00
35551;BME280;21655;46.056;13.616;2023-05-22T02:28:52;100174.59;;;15.28;100.00
35551;BME280;21655;46.056;13.616;2023-05-22T02:31:17;100174.59;;;15.22;100.00
35551;BME280;21655;46.056;13.616;2023-05-22T02:33:43;100167.28;;;15.14;100.00
35551;BME280;21655;46.056;13.616;2023-05-22T02:36:08;100163.84;;;15.12;100.00
35551;BME280;21655;46.056;13.616;2023-05-22T02:38:35;100170.72;;;15.23;100.00
35551;BME280;21655;46.056;13.616;2023-05-22T02:41:01;100171.16;;;15.20;100.00
35551;BME280;21655;46.056;13.616;2023-05-22T02:43:26;100172.22;;;15.06;100.00
35551;BME280;21655;46.056;13.616;2023-05-22T02:45:51;100164.91;;;14.99;100.00
35551;BME280;21655;46.056;13.616;2023-05-22T02:48:17;100164.50;;;15.14;100.00
35551;BME280;21655;46.056;13.616;2023-05-22T02:50:43;100162.78;;;15.07;100.00
35551;BME280;21655;46.056;13.616;2023-05-22T02:53:08;100169.88;;;14.97;100.00
35551;BME280;21655;46.056;13.616;2023-05-22T02:55:34;100165.13;;;15.10;100.00
35551;BME280;21655;46.056;13.616;2023-05-22T02:58:00;100162.97;;;15.12;100.00
35551;BME280;21655;46.056;13.616;2023-05-22T03:00:26;100168.38;;;15.07;100.00
35551;BME280;21655;46.056;13.616;2023-05-22T03:02:51;100162.78;;;15.07;100.00
35551;BME280;21655;46.056;13.616;2023-05-22T03:05:17;100160.84;;;15.07;100.00
35551;BME280;21655;46.056;13.616;2023-05-22T03:07:43;100159.97;;;15.07;100.00
35551;BME280;21655;46.056;13.616;2023-05-22T03:10:09;100163.00;;;14.93;100.00
35551;BME280;21655;46.056;13.616;2023-05-22T03:12:34;100158.06;;;15.01;100.00
35551;BME280;21655;46.056;13.616;2023-05-22T03:15:00;100159.56;;;15.10;100.00
35551;BME280;21655;46.056;13.616;2023-05-22T03:17:25;100167.09;;;15.03;100.00
35551;BME280;21655;46.056;13.616;2023-05-22T03:19:50;100166.63;;;14.93;100.00
35551;BME280;21655;46.056;13.616;2023-05-22T03:22:16;100164.91;;;14.99;100.00
35551;BME280;21655;46.056;13.616;2023-05-22T03:24:42;100162.56;;;14.89;100.00
35551;BME280;21655;46.056;13.616;2023-05-22T03:27:08;100158.91;;;14.95;100.00
35551;BME280;21655;46.056;13.616;2023-05-22T03:29:33;100157.63;;;14.98;100.00
35551;BME280;21655;46.056;13.616;2023-05-22T03:31:59;100160.38;;;14.78;100.00
35551;BME280;21655;46.056;13.616;2023-05-22T03:34:24;100156.91;;;14.70;100.00
35551;BME280;21655;46.056;13.616;2023-05-22T03:36:51;100156.94;;;14.76;100.00
35551;BME280;21655;46.056;13.616;2023-05-22T03:39:17;100159.53;;;14.84;100.00
35551;BME280;21655;46.056;13.616;2023-05-22T03:41:42;100153.50;;;14.74;100.00
35551;BME280;21655;46.056;13.616;2023-05-22T03:44:07;100149.66;;;14.95;100.00
35551;BME280;21655;46.056;13.616;2023-05-22T03:46:33;100155.47;;;15.00;100.00
35551;BME280;21655;46.056;13.616;2023-05-22T03:48:58;100159.13;;;14.94;100.00
35551;BME280;21655;46.056;13.616;2023-05-22T03:51:24;100158.22;;;14.74;100.00
35551;BME280;21655;46.056;13.616;2023-05-22T03:53:49;100155.25;;;14.88;100.00
35551;BME280;21655;46.056;13.616;2023-05-22T03:56:15;100155.66;;;14.98;100.00
35551;BME280;21655;46.056;13.616;2023-05-22T03:58:40;100166.22;;;15.09;100.00
35551;BME280;21655;46.056;13.616;2023-05-22T04:01:06;100165.34;;;15.28;100.00
35551;BME280;21655;46.056;13.616;2023-05-22T04:03:35;100154.19;;;15.28;100.00
35551;BME280;21655;46.056;13.616;2023-05-22T04:06:00;100157.84;;;15.22;100.00
35551;BME280;21655;46.056;13.616;2023-05-22T04:08:27;100158.72;;;15.29;100.00
35551;BME280;21655;46.056;13.616;2023-05-22T04:10:52;100148.38;;;15.23;100.00
35551;BME280;21655;46.056;13.616;2023-05-22T04:13:18;100146.66;;;15.48;100.00
35551;BME280;21655;46.056;13.616;2023-05-22T04:15:44;100149.88;;;15.58;100.00
35551;BME280;21655;46.056;13.616;2023-05-22T04:18:10;100144.47;;;15.69;100.00
35551;BME280;21655;46.056;13.616;2023-05-22T04:20:36;100152.44;;;15.72;100.00
35551;BME280;21655;46.056;13.616;2023-05-22T04:23:02;100150.72;;;15.65;100.00
35551;BME280;21655;46.056;13.616;2023-05-22T04:25:27;100155.63;;;15.89;100.00
35551;BME280;21655;46.056;13.616;2023-05-22T04:27:54;100150.16;;;16.13;100.00
35551;BME280;21655;46.056;13.616;2023-05-22T04:30:19;100148.38;;;16.32;100.00
35551;BME280;21655;46.056;13.616;2023-05-22T04:32:46;100149.66;;;16.42;100.00
35551;BME280;21655;46.056;13.616;2023-05-22T04:35:11;100147.22;;;16.46;100.00
35551;BME280;21655;46.056;13.616;2023-05-22T04:37:40;100160.34;;;16.52;100.00
35551;BME280;21655;46.056;13.616;2023-05-22T04:40:10;100148.25;;;16.58;100.00
35551;BME280;21655;46.056;13.616;2023-05-22T04:42:36;100158.75;;;16.69;100.00
35551;BME280;21655;46.056;13.616;2023-05-22T04:45:03;100147.47;;;16.82;100.00
35551;BME280;21655;46.056;13.616;2023-05-22T04:47:28;100155.25;;;17.04;100.00
35551;BME280;21655;46.056;13.616;2023-05-22T04:49:56;100146.19;;;17.33;100.00
35551;BME280;21655;46.056;13.616;2023-05-22T04:52:21;100138.28;;;17.72;100.00
35551;BME280;21655;46.056;13.616;2023-05-22T04:54:47;100148.06;;;18.06;100.00
35551;BME280;21655;46.056;13.616;2023-05-22T04:57:15;100148.22;;;17.93;100.00
35551;BME280;21655;46.056;13.616;2023-05-22T04:59:41;100154.97;;;17.67;100.00
35551;BME280;21655;46.056;13.616;2023-05-22T05:02:06;100150.63;;;17.47;100.00
35551;BME280;21655;46.056;13.616;2023-05-22T05:04:32;100155.44;;;17.40;100.00
35551;BME280;21655;46.056;13.616;2023-05-22T05:06:58;100153.06;;;17.37;100.00
35551;BME280;21655;46.056;13.616;2023-05-22T05:09:24;100153.84;;;17.50;100.00
35551;BME280;21655;46.056;13.616;2023-05-22T05:11:49;100156.19;;;17.53;100.00
35551;BME280;21655;46.056;13.616;2023-05-22T05:14:15;100159.75;;;17.60;100.00
35551;BME280;21655;46.056;13.616;2023-05-22T05:16:41;100150.31;;;17.79;100.00
35551;BME280;21655;46.056;13.616;2023-05-22T05:19:06;100152.59;;;17.89;100.00
35551;BME280;21655;46.056;13.616;2023-05-22T05:21:32;100141.38;;;18.07;100.00
35551;BME280;21655;46.056;13.616;2023-05-22T05:23:57;100141.13;;;18.08;100.00
35551;BME280;21655;46.056;13.616;2023-05-22T05:26:23;100133.09;;;18.12;100.00
35551;BME280;21655;46.056;13.616;2023-05-22T05:28:49;100130.53;;;18.28;100.00
35551;BME280;21655;46.056;13.616;2023-05-22T05:31:16;100124.59;;;18.36;100.00
35551;BME280;21655;46.056;13.616;2023-05-22T05:33:42;100134.78;;;18.49;100.00
35551;BME280;21655;46.056;13.616;2023-05-22T05:36:07;100135.69;;;18.13;100.00
35551;BME280;21655;46.056;13.616;2023-05-22T05:38:33;100144.94;;;17.78;100.00
35551;BME280;21655;46.056;13.616;2023-05-22T05:40:58;100151.00;;;17.75;100.00
35551;BME280;21655;46.056;13.616;2023-05-22T05:43:23;100151.72;;;17.88;100.00
35551;BME280;21655;46.056;13.616;2023-05-22T05:45:49;100154.06;;;18.09;100.00
35551;BME280;21655;46.056;13.616;2023-05-22T05:48:15;100154.53;;;18.24;100.00
35551;BME280;21655;46.056;13.616;2023-05-22T05:50:41;100148.63;;;18.32;100.00
35551;BME280;21655;46.056;13.616;2023-05-22T05:53:07;100148.31;;;18.40;100.00
35551;BME280;21655;46.056;13.616;2023-05-22T05:55:32;100143.19;;;18.67;100.00
35551;BME280;21655;46.056;13.616;2023-05-22T05:57:58;100148.88;;;18.78;100.00
35551;BME280;21655;46.056;13.616;2023-05-22T06:00:24;100143.25;;;18.78;100.00
35551;BME280;21655;46.056;13.616;2023-05-22T06:02:50;100145.50;;;18.88;100.00
35551;BME280;21655;46.056;13.616;2023-05-22T06:05:15;100153.75;;;19.12;100.00
35551;BME280;21655;46.056;13.616;2023-05-22T06:07:43;100148.78;;;19.25;100.00
35551;BME280;21655;46.056;13.616;2023-05-22T06:10:11;100154.66;;;19.24;100.00
35551;BME280;21655;46.056;13.616;2023-05-22T06:12:37;100151.84;;;19.24;100.00
35551;BME280;21655;46.056;13.616;2023-05-22T06:15:04;100157.75;;;19.04;100.00
35551;BME280;21655;46.056;13.616;2023-05-22T06:17:30;100148.97;;;19.12;100.00
35551;BME280;21655;46.056;13.616;2023-05-22T06:19:55;100146.22;;;19.35;100.00
35551;BME280;21655;46.056;13.616;2023-05-22T06:22:21;100149.69;;;19.49;100.00
35551;BME280;21655;46.056;13.616;2023-05-22T06:24:52;100146.13;;;19.88;100.00
35551;BME280;21655;46.056;13.616;2023-05-22T06:27:21;100149.72;;;19.95;100.00
35551;BME280;21655;46.056;13.616;2023-05-22T06:29:48;100140.41;;;20.06;100.00
35551;BME280;21655;46.056;13.616;2023-05-22T06:32:14;100146.41;;;20.09;100.00
35551;BME280;21655;46.056;13.616;2023-05-22T06:34:39;100142.38;;;20.05;100.00
35551;BME280;21655;46.056;13.616;2023-05-22T06:37:05;100144.41;;;19.98;100.00
35551;BME280;21655;46.056;13.616;2023-05-22T06:39:31;100144.56;;;19.46;100.00
35551;BME280;21655;46.056;13.616;2023-05-22T06:41:56;100145.41;;;19.92;100.00
35551;BME280;21655;46.056;13.616;2023-05-22T06:44:22;100144.69;;;20.08;100.00
35551;BME280;21655;46.056;13.616;2023-05-22T06:46:50;100148.84;;;20.29;100.00
35551;BME280;21655;46.056;13.616;2023-05-22T06:49:16;100148.94;;;20.34;100.00
35551;BME280;21655;46.056;13.616;2023-05-22T06:51:41;100144.91;;;20.69;100.00
35551;BME280;21655;46.056;13.616;2023-05-22T06:54:07;100135.94;;;20.84;100.00
35551;BME280;21655;46.056;13.616;2023-05-22T06:56:33;100147.81;;;20.86;100.00
35551;BME280;21655;46.056;13.616;2023-05-22T06:58:59;100141.88;;;20.99;100.00
35551;BME280;21655;46.056;13.616;2023-05-22T07:01:24;100148.50;;;21.37;100.00
35551;BME280;21655;46.056;13.616;2023-05-22T07:03:50;100142.19;;;22.34;100.00
35551;BME280;21655;46.056;13.616;2023-05-22T07:06:15;100142.09;;;23.41;100.00
35551;BME280;21655;46.056;13.616;2023-05-22T07:08:40;100138.06;;;24.46;100.00
35551;BME280;21655;46.056;13.616;2023-05-22T07:11:06;100129.06;;;25.25;100.00
35551;BME280;21655;46.056;13.616;2023-05-22T07:13:32;100135.88;;;25.24;100.00
35551;BME280;21655;46.056;13.616;2023-05-22T07:15:58;100124.19;;;25.16;100.00
35551;BME280;21655;46.056;13.616;2023-05-22T07:18:23;100128.50;;;25.43;100.00
35551;BME280;21655;46.056;13.616;2023-05-22T07:20:49;100134.19;;;25.38;100.00
35551;BME280;21655;46.056;13.616;2023-05-22T07:23:14;100136.31;;;24.30;100.00
35551;BME280;21655;46.056;13.616;2023-05-22T07:25:40;100136.56;;;24.29;100.00
35551;BME280;21655;46.056;13.616;2023-05-22T07:28:06;100139.03;;;25.53;100.00
35551;BME280;21655;46.056;13.616;2023-05-22T07:30:36;100130.47;;;26.28;98.79
35551;BME280;21655;46.056;13.616;2023-05-22T07:33:02;100138.19;;;25.97;100.00
35551;BME280;21655;46.056;13.616;2023-05-22T07:35:28;100125.72;;;27.78;87.11
35551;BME280;21655;46.056;13.616;2023-05-22T07:37:53;100120.88;;;28.07;82.95
35551;BME280;21655;46.056;13.616;2023-05-22T07:40:18;100121.88;;;28.73;76.43
35551;BME280;21655;46.056;13.616;2023-05-22T07:42:44;100125.97;;;30.01;67.04
35551;BME280;21655;46.056;13.616;2023-05-22T07:45:09;100124.56;;;29.48;67.53
35551;BME280;21655;46.056;13.616;2023-05-22T07:47:35;100116.06;;;29.25;67.12
35551;BME280;21655;46.056;13.616;2023-05-22T07:50:01;100113.69;;;29.50;65.28
35551;BME280;21655;46.056;13.616;2023-05-22T07:52:29;100115.13;;;28.41;74.29
35551;BME280;21655;46.056;13.616;2023-05-22T07:54:56;100112.47;;;28.49;75.43
35551;BME280;21655;46.056;13.616;2023-05-22T07:57:21;100117.41;;;28.91;68.84
35551;BME280;21655;46.056;13.616;2023-05-22T07:59:47;100110.41;;;28.03;76.08
35551;BME280;21655;46.056;13.616;2023-05-22T08:02:13;100109.88;;;28.53;74.74
35551;BME280;21655;46.056;13.616;2023-05-22T08:04:39;100099.41;;;28.90;70.97
35551;BME280;21655;46.056;13.616;2023-05-22T08:07:05;100102.31;;;28.62;70.40
35551;BME280;21655;46.056;13.616;2023-05-22T08:09:30;100110.84;;;28.43;75.45
35551;BME280;21655;46.056;13.616;2023-05-22T08:11:56;100093.88;;;29.72;67.72
35551;BME280;21655;46.056;13.616;2023-05-22T08:14:21;100099.53;;;28.33;72.58
35551;BME280;21655;46.056;13.616;2023-05-22T08:16:47;100085.38;;;29.67;66.66
35551;BME280;21655;46.056;13.616;2023-05-22T08:19:12;100087.16;;;29.45;70.49
35551;BME280;21655;46.056;13.616;2023-05-22T08:21:38;100074.81;;;30.13;65.90
35551;BME280;21655;46.056;13.616;2023-05-22T08:24:05;100082.41;;;30.90;64.49
35551;BME280;21655;46.056;13.616;2023-05-22T08:26:30;100078.34;;;31.53;58.48
35551;BME280;21655;46.056;13.616;2023-05-22T08:28:58;100074.44;;;32.37;56.20
35551;BME280;21655;46.056;13.616;2023-05-22T08:31:23;100081.50;;;32.09;55.01
35551;BME280;21655;46.056;13.616;2023-05-22T08:33:49;100069.69;;;32.11;51.26
35551;BME280;21655;46.056;13.616;2023-05-22T08:36:14;100068.06;;;32.49;53.09
35551;BME280;21655;46.056;13.616;2023-05-22T08:38:40;100062.41;;;32.66;51.49
35551;BME280;21655;46.056;13.616;2023-05-22T08:41:06;100058.75;;;32.13;50.88
35551;BME280;21655;46.056;13.616;2023-05-22T08:43:32;100060.47;;;32.53;47.34
35551;BME280;21655;46.056;13.616;2023-05-22T08:46:04;100064.13;;;31.84;50.15
35551;BME280;21655;46.056;13.616;2023-05-22T08:48:31;100059.19;;;32.28;49.49
35551;BME280;21655;46.056;13.616;2023-05-22T08:50:58;100051.13;;;32.39;52.48
35551;BME280;21655;46.056;13.616;2023-05-22T08:53:27;100051.47;;;32.76;46.45
35551;BME280;21655;46.056;13.616;2023-05-22T08:55:53;100059.06;;;33.62;45.61
35551;BME280;21655;46.056;13.616;2023-05-22T08:58:19;100051.41;;;34.00;43.51
35551;BME280;21655;46.056;13.616;2023-05-22T09:00:46;100037.34;;;34.24;42.25
35551;BME280;21655;46.056;13.616;2023-05-22T09:03:12;100034.84;;;33.54;43.92
35551;BME280;21655;46.056;13.616;2023-05-22T09:05:39;100036.69;;;33.17;39.16
35551;BME280;21655;46.056;13.616;2023-05-22T09:08:07;100032.50;;;33.40;41.37
35551;BME280;21655;46.056;13.616;2023-05-22T09:10:33;100034.28;;;33.02;37.92
35551;BME280;21655;46.056;13.616;2023-05-22T09:13:06;100039.09;;;33.48;37.85
35551;BME280;21655;46.056;13.616;2023-05-22T09:15:36;100032.09;;;33.07;38.65
35551;BME280;21655;46.056;13.616;2023-05-22T09:18:02;100037.81;;;32.51;38.31
35551;BME280;21655;46.056;13.616;2023-05-22T09:20:28;100037.84;;;32.99;38.87
35551;BME280;21655;46.056;13.616;2023-05-22T09:22:54;100027.75;;;33.27;38.04
35551;BME280;21655;46.056;13.616;2023-05-22T09:25:20;100022.09;;;32.96;38.85
35551;BME280;21655;46.056;13.616;2023-05-22T09:27:49;100029.28;;;33.24;37.48
35551;BME280;21655;46.056;13.616;2023-05-22T09:30:18;100031.00;;;32.69;39.04
35551;BME280;21655;46.056;13.616;2023-05-22T09:32:45;100025.16;;;32.52;40.65
35551;BME280;21655;46.056;13.616;2023-05-22T09:35:13;100026.72;;;33.31;39.48
35551;BME280;21655;46.056;13.616;2023-05-22T09:37:39;100025.16;;;34.01;38.16
35551;BME280;21655;46.056;13.616;2023-05-22T09:40:06;100019.19;;;34.23;37.58
35551;BME280;21655;46.056;13.616;2023-05-22T09:42:33;100021.66;;;33.79;37.72
35551;BME280;21655;46.056;13.616;2023-05-22T09:45:06;100018.03;;;34.07;36.55
35551;BME280;21655;46.056;13.616;2023-05-22T09:47:32;100020.94;;;33.90;37.37
35551;BME280;21655;46.056;13.616;2023-05-22T09:49:59;100021.97;;;33.52;39.41
35551;BME280;21655;46.056;13.616;2023-05-22T09:52:27;100018.59;;;33.84;37.84
35551;BME280;21655;46.056;13.616;2023-05-22T09:54:54;100014.41;;;33.22;37.82
35551;BME280;21655;46.056;13.616;2023-05-22T09:57:23;100021.09;;;33.01;39.43
35551;BME280;21655;46.056;13.616;2023-05-22T09:59:54;100016.91;;;33.32;37.60
35551;BME280;21655;46.056;13.616;2023-05-22T10:02:25;100021.47;;;33.50;36.95
35551;BME280;21655;46.056;13.616;2023-05-22T10:04:51;100016.41;;;33.30;38.22
35551;BME280;21655;46.056;13.616;2023-05-22T10:07:33;100020.75;;;33.11;37.50
35551;BME280;21655;46.056;13.616;2023-05-22T10:10:06;100011.31;;;33.10;38.22
35551;BME280;21655;46.056;13.616;2023-05-22T10:12:37;100023.16;;;33.51;36.17
35551;BME280;21655;46.056;13.616;2023-05-22T10:15:06;100015.16;;;35.20;36.69
35551;BME280;21655;46.056;13.616;2023-05-22T10:17:33;100001.50;;;35.49;35.30
35551;BME280;21655;46.056;13.616;2023-05-22T10:20:00;100006.38;;;35.89;35.36
35551;BME280;21655;46.056;13.616;2023-05-22T10:22:26;100007.75;;;36.04;33.34
35551;BME280;21655;46.056;13.616;2023-05-22T10:24:53;100006.00;;;35.91;34.34
35551;BME280;21655;46.056;13.616;2023-05-22T10:27:19;99995.44;;;34.64;35.07
35551;BME280;21655;46.056;13.616;2023-05-22T10:30:00;100001.91;;;34.23;35.05
35551;BME280;21655;46.056;13.616;2023-05-22T10:35:15;99996.97;;;34.32;35.41
35551;BME280;21655;46.056;13.616;2023-05-22T10:37:48;99991.38;;;34.36;34.96
35551;BME280;21655;46.056;13.616;2023-05-22T10:40:20;99990.78;;;34.05;34.24
35551;BME280;21655;46.056;13.616;2023-05-22T10:42:46;99988.75;;;34.51;33.57
35551;BME280;21655;46.056;13.616;2023-05-22T10:45:12;99990.09;;;34.83;34.61
35551;BME280;21655;46.056;13.616;2023-05-22T10:47:37;99990.63;;;34.47;34.82
35551;BME280;21655;46.056;13.616;2023-05-22T10:50:10;99982.91;;;34.31;34.50
35551;BME280;21655;46.056;13.616;2023-05-22T10:52:36;99973.75;;;33.57;34.42
35551;BME280;21655;46.056;13.616;2023-05-22T10:55:07;99981.53;;;32.98;36.60
35551;BME280;21655;46.056;13.616;2023-05-22T10:57:33;99980.22;;;33.29;35.48
35551;BME280;21655;46.056;13.616;2023-05-22T11:00:07;99970.91;;;33.32;36.49
35551;BME280;21655;46.056;13.616;2023-05-22T11:02:39;99976.53;;;32.64;36.83
35551;BME280;21655;46.056;13.616;2023-05-22T11:07:46;99968.81;;;32.26;38.24
35551;BME280;21655;46.056;13.616;2023-05-22T11:10:12;99968.75;;;31.34;39.18
35551;BME280;21655;46.056;13.616;2023-05-22T11:12:37;99965.94;;;31.21;39.28
35551;BME280;21655;46.056;13.616;2023-05-22T11:15:05;99961.00;;;31.35;39.97
35551;BME280;21655;46.056;13.616;2023-05-22T11:17:32;99958.25;;;31.30;38.61
35551;BME280;21655;46.056;13.616;2023-05-22T11:20:02;99957.47;;;31.16;39.71
35551;BME280;21655;46.056;13.616;2023-05-22T11:22:33;99949.13;;;31.28;40.68
35551;BME280;21655;46.056;13.616;2023-05-22T11:25:02;99941.53;;;31.24;39.14
35551;BME280;21655;46.056;13.616;2023-05-22T11:27:29;99951.97;;;31.06;40.05
35551;BME280;21655;46.056;13.616;2023-05-22T11:29:55;99937.31;;;31.08;39.90
35551;BME280;21655;46.056;13.616;2023-05-22T11:32:21;99940.91;;;31.57;42.05
35551;BME280;21655;46.056;13.616;2023-05-22T11:34:48;99939.59;;;31.41;38.29
35551;BME280;21655;46.056;13.616;2023-05-22T11:37:16;99935.47;;;31.47;38.66
35551;BME280;21655;46.056;13.616;2023-05-22T11:40:04;99934.63;;;31.11;39.48
35551;BME280;21655;46.056;13.616;2023-05-22T11:42:28;99931.25;;;31.23;39.29
35551;BME280;21655;46.056;13.616;2023-05-22T11:44:54;99926.44;;;31.40;38.93
35551;BME280;21655;46.056;13.616;2023-05-22T11:47:20;99924.03;;;30.90;39.82
35551;BME280;21655;46.056;13.616;2023-05-22T11:49:45;99920.09;;;31.21;40.42
35551;BME280;21655;46.056;13.616;2023-05-22T11:52:11;99918.22;;;30.81;41.12
35551;BME280;21655;46.056;13.616;2023-05-22T11:54:37;99921.25;;;30.36;41.76
35551;BME280;21655;46.056;13.616;2023-05-22T11:57:04;99926.03;;;30.00;41.38
35551;BME280;21655;46.056;13.616;2023-05-22T11:59:30;99927.28;;;29.80;42.12
35551;BME280;21655;46.056;13.616;2023-05-22T12:01:55;99922.19;;;29.77;41.38
35551;BME280;21655;46.056;13.616;2023-05-22T12:04:21;99922.25;;;30.04;44.41
35551;BME280;21655;46.056;13.616;2023-05-22T12:06:47;99922.28;;;30.53;44.48
35551;BME280;21655;46.056;13.616;2023-05-22T12:09:13;99917.56;;;30.08;42.73
35551;BME280;21655;46.056;13.616;2023-05-22T12:11:38;99912.78;;;29.77;44.55
35551;BME280;21655;46.056;13.616;2023-05-22T12:14:04;99910.03;;;29.99;42.49
35551;BME280;21655;46.056;13.616;2023-05-22T12:16:36;99915.13;;;29.88;41.26
35551;BME280;21655;46.056;13.616;2023-05-22T12:19:06;99913.50;;;29.55;48.95
35551;BME280;21655;46.056;13.616;2023-05-22T12:21:31;99921.19;;;28.91;52.88
35551;BME280;21655;46.056;13.616;2023-05-22T12:23:57;99916.25;;;28.78;56.97
35551;BME280;21655;46.056;13.616;2023-05-22T12:26:26;99924.28;;;29.26;67.69
35551;BME280;21655;46.056;13.616;2023-05-22T12:28:52;99915.53;;;29.36;73.46
35551;BME280;21655;46.056;13.616;2023-05-22T12:31:22;99918.16;;;28.83;69.40
35551;BME280;21655;46.056;13.616;2023-05-22T12:33:48;99915.53;;;28.86;72.61
35551;BME280;21655;46.056;13.616;2023-05-22T12:36:13;99917.81;;;29.21;62.12
35551;BME280;21655;46.056;13.616;2023-05-22T12:38:39;99914.44;;;29.51;55.62
35551;BME280;21655;46.056;13.616;2023-05-22T12:41:05;99910.75;;;29.77;54.75
35551;BME280;21655;46.056;13.616;2023-05-22T12:43:30;99907.38;;;29.75;54.40
35551;BME280;21655;46.056;13.616;2023-05-22T12:45:56;99901.16;;;30.14;54.24
35551;BME280;21655;46.056;13.616;2023-05-22T12:48:21;99904.09;;;29.95;53.13
35551;BME280;21655;46.056;13.616;2023-05-22T12:50:47;99898.41;;;29.36;53.24
35551;BME280;21655;46.056;13.616;2023-05-22T12:53:13;99902.78;;;29.47;50.46
35551;BME280;21655;46.056;13.616;2023-05-22T12:55:39;99892.13;;;29.93;52.53
35551;BME280;21655;46.056;13.616;2023-05-22T12:58:04;99902.22;;;30.04;50.04